La Luna Sb — 2BJU9 — position and weather

sailwx.info

Track history (hours):
 
Tides and Currents Weather Stations Pressure Air Temp Water Temp Dewpoint Dewpoint Depression Visibility Wind Speed Wind Dir Waves Ship Positions

La Luna Sb

Last reported at 2017-Jun-26 10:09 UTC. Time now 2017-Aug-20 13:22 UTC.
Position N 37°55' E 015°42'.
Warning: this ship's position is 55 days out of date.

Type: Pleasure craft. MMSI: 235066733.

Date/timePositionNaut miles runAvg speedWind from/ knotsBaromVisibWave heightAir tempDewpointWater temp
2017-Jun-26 10:09N 37°55' E 015°42'2 5.5
2017-Jun-26 09:47N 37°57' E 015°40'311 6.8
2017-Jun-24 11:44N 39°09' E 009°13'2 9.0
2017-Jun-24 11:29N 39°09' E 009°10'3 5.5
2017-Jun-24 11:00N 39°11' E 009°07'2 3.7
2017-Jun-24 10:30N 39°12' E 009°07'0 0.0
2017-Jun-24 09:57N 39°12' E 009°07'0 0.0
2017-Jun-24 09:30N 39°12' E 009°07'0 0.0
2017-Jun-24 09:00N 39°12' E 009°07'0 0.0
2017-Jun-24 08:24N 39°12' E 009°07'0 0.0
2017-Jun-24 08:00N 39°12' E 009°07'0 0.0
2017-Jun-24 07:30N 39°12' E 009°07'0 0.0
2017-Jun-24 07:00N 39°12' E 009°07'0 0.0
2017-Jun-24 06:30N 39°12' E 009°07'0 0.0
2017-Jun-24 06:00N 39°12' E 009°07'0 0.0
2017-Jun-24 05:30N 39°12' E 009°07'0 0.0
2017-Jun-24 05:00N 39°12' E 009°07'0 0.0
2017-Jun-24 04:30N 39°12' E 009°07'0 0.0
2017-Jun-24 04:00N 39°12' E 009°07'0 0.0
2017-Jun-24 03:30N 39°12' E 009°07'0 0.0
2017-Jun-24 03:00N 39°12' E 009°07'0 0.0
2017-Jun-24 02:30N 39°12' E 009°07'0 0.0
2017-Jun-24 02:00N 39°12' E 009°07'0 0.0
2017-Jun-24 01:30N 39°12' E 009°07'0 0.0
2017-Jun-24 01:00N 39°12' E 009°07'0 0.0
2017-Jun-24 00:30N 39°12' E 009°07'0 0.0
2017-Jun-24 00:00N 39°12' E 009°07'0 0.0
2017-Jun-23 23:30N 39°12' E 009°07'0 0.0
2017-Jun-23 23:00N 39°12' E 009°07'0 0.0
2017-Jun-23 22:28N 39°12' E 009°07'0 0.0
2017-Jun-23 21:58N 39°12' E 009°07'0 0.0
2017-Jun-23 21:28N 39°12' E 009°07'0 0.0
2017-Jun-23 20:58N 39°12' E 009°07'0 0.0
2017-Jun-23 20:28N 39°12' E 009°07'0 0.0
2017-Jun-23 19:58N 39°12' E 009°07'0 0.0
2017-Jun-23 19:28N 39°12' E 009°07'0 0.0
2017-Jun-23 18:58N 39°12' E 009°07'0 0.0
2017-Jun-23 18:28N 39°12' E 009°07'0 0.0
2017-Jun-23 17:58N 39°12' E 009°07'0 0.0
2017-Jun-23 17:28N 39°12' E 009°07'0 0.0
2017-Jun-23 16:58N 39°12' E 009°07'0 0.0
2017-Jun-23 16:28N 39°12' E 009°07'0 0.0
2017-Jun-23 15:58N 39°12' E 009°07'0 0.0
2017-Jun-23 15:25N 39°12' E 009°07'0 0.0
2017-Jun-23 14:58N 39°12' E 009°07'0 0.0
2017-Jun-23 14:28N 39°12' E 009°07'0 0.0
2017-Jun-23 13:58N 39°12' E 009°07'0 0.0
2017-Jun-23 13:28N 39°12' E 009°07'0 0.0
2017-Jun-23 12:58N 39°12' E 009°07'0 0.0
2017-Jun-23 12:28N 39°12' E 009°07'0 0.0
2017-Jun-23 11:58N 39°12' E 009°07'0 0.0
2017-Jun-23 11:28N 39°12' E 009°07'0 0.0
2017-Jun-23 10:58N 39°12' E 009°07'0 0.1
2017-Jun-23 10:29N 39°12' E 009°07'3 5.7
2017-Jun-23 09:59N 39°10' E 009°06'4 7.6
2017-Jun-23 09:29N 39°06' E 009°05'4 7.7
2017-Jun-23 08:55N 39°02' E 009°03'262 5.6
2017-Jun-21 10:09N 39°11' E 003°25'10 7.5
2017-Jun-21 08:53N 39°13' E 003°13'3 7.6
2017-Jun-21 08:29N 39°13' E 003°09'5 7.7
2017-Jun-21 07:50N 39°14' E 003°03'3 7.6
2017-Jun-21 07:30N 39°15' E 002°60'4 7.5
2017-Jun-21 06:59N 39°17' E 002°55'5 7.7
2017-Jun-21 06:18N 39°20' E 002°50'3 7.5
2017-Jun-21 05:57N 39°21' E 002°47'3 7.3
2017-Jun-21 05:30N 39°24' E 002°44'4 7.8
2017-Jun-21 05:00N 39°27' E 002°43'2 4.1
2017-Jun-21 04:30N 39°29' E 002°41'4 7.3
2017-Jun-21 04:00N 39°32' E 002°39'2 3.8
2017-Jun-21 03:28N 39°34' E 002°38'0 0.0
2017-Jun-21 02:58N 39°34' E 002°38'0 0.0
2017-Jun-21 02:30N 39°34' E 002°38'0 0.0
2017-Jun-21 01:57N 39°34' E 002°38'0 0.0
2017-Jun-21 01:30N 39°34' E 002°38'0 0.0
2017-Jun-21 01:00N 39°34' E 002°38'0 0.0
2017-Jun-21 00:30N 39°34' E 002°38'0 0.0
2017-Jun-20 23:57N 39°34' E 002°38'0 0.0
2017-Jun-20 23:30N 39°34' E 002°38'0 0.0
2017-Jun-20 23:00N 39°34' E 002°38'0 0.0
2017-Jun-20 22:30N 39°34' E 002°38'0 0.0
2017-Jun-20 22:00N 39°34' E 002°38'0 0.0
2017-Jun-20 21:30N 39°34' E 002°38'0 0.0
2017-Jun-20 20:57N 39°34' E 002°38'0 0.0
2017-Jun-20 20:30N 39°34' E 002°38'0 0.0
2017-Jun-20 19:57N 39°34' E 002°38'0 0.0
2017-Jun-20 19:30N 39°34' E 002°38'0 0.0
2017-Jun-20 19:00N 39°34' E 002°38'0 0.0
2017-Jun-20 18:30N 39°34' E 002°38'0 0.0
2017-Jun-20 18:00N 39°34' E 002°38'0 0.0
2017-Jun-20 17:30N 39°34' E 002°38'0 0.0
2017-Jun-20 16:59N 39°34' E 002°38'0 0.0
2017-Jun-20 16:29N 39°34' E 002°38'0 0.0
2017-Jun-20 15:59N 39°34' E 002°38'0 0.0
2017-Jun-20 15:29N 39°34' E 002°38'0 0.0
2017-Jun-20 14:53N 39°34' E 002°38'0 0.0
2017-Jun-20 13:59N 39°34' E 002°38'0 0.0
2017-Jun-20 13:29N 39°34' E 002°38'0 0.0
2017-Jun-20 12:59N 39°34' E 002°38'0 0.0
2017-Jun-20 12:29N 39°34' E 002°38'0 0.0
2017-Jun-20 11:59N 39°34' E 002°38'0 0.0
2017-Jun-20 11:29N 39°34' E 002°38'0 0.0
2017-Jun-20 10:56N 39°34' E 002°38'0 0.0
2017-Jun-20 10:29N 39°34' E 002°38'0 0.0
2017-Jun-20 09:59N 39°34' E 002°38'0 0.0
2017-Jun-20 09:29N 39°34' E 002°38'0 0.0
2017-Jun-20 08:59N 39°34' E 002°38'0 0.0
2017-Jun-20 08:29N 39°34' E 002°38'0 0.0
2017-Jun-20 07:59N 39°34' E 002°38'0 0.0
2017-Jun-20 07:29N 39°34' E 002°38'0 0.0
2017-Jun-20 06:59N 39°34' E 002°38'0 0.0
2017-Jun-20 06:29N 39°34' E 002°38'0 0.0
2017-Jun-20 05:56N 39°34' E 002°38'0 0.0
2017-Jun-20 05:29N 39°34' E 002°38'0 0.0
2017-Jun-20 04:59N 39°34' E 002°38'0 0.0
2017-Jun-20 04:29N 39°34' E 002°38'0 0.0
2017-Jun-20 03:59N 39°34' E 002°38'0 0.0
2017-Jun-20 03:29N 39°34' E 002°38'0 0.0
2017-Jun-20 02:59N 39°34' E 002°38'0 0.0
2017-Jun-20 02:30N 39°34' E 002°38'0 0.0
2017-Jun-20 02:00N 39°34' E 002°38'0 0.0
2017-Jun-20 01:30N 39°34' E 002°38'0 0.0
2017-Jun-20 01:00N 39°34' E 002°38'0 0.0
2017-Jun-20 00:30N 39°34' E 002°38'0 0.0
2017-Jun-20 00:00N 39°34' E 002°38'0 0.0
2017-Jun-19 23:30N 39°34' E 002°38'0 0.0
2017-Jun-19 23:00N 39°34' E 002°38'0 0.0
2017-Jun-19 22:30N 39°34' E 002°38'0 0.0
2017-Jun-19 22:00N 39°34' E 002°38'0 0.0
2017-Jun-19 21:30N 39°34' E 002°38'0 0.0
2017-Jun-19 21:00N 39°34' E 002°38'0 0.0
2017-Jun-19 20:30N 39°34' E 002°38'0 0.0
2017-Jun-19 20:00N 39°34' E 002°38'0 0.0
2017-Jun-19 19:30N 39°34' E 002°38'0 0.0
2017-Jun-19 19:00N 39°34' E 002°38'0 0.0
2017-Jun-19 18:30N 39°34' E 002°38'0 0.0
2017-Jun-19 18:00N 39°34' E 002°38'0 0.0
2017-Jun-19 17:30N 39°34' E 002°38'0 0.0
2017-Jun-19 16:57N 39°34' E 002°38'0 0.0
2017-Jun-19 16:30N 39°34' E 002°38'0 0.0
2017-Jun-19 15:57N 39°34' E 002°38'0 0.0
2017-Jun-19 15:30N 39°34' E 002°38'0 0.0
2017-Jun-19 15:00N 39°34' E 002°38'0 0.0
2017-Jun-19 14:00N 39°34' E 002°38'0 0.0
2017-Jun-19 13:30N 39°34' E 002°38'0 0.0
2017-Jun-19 13:00N 39°34' E 002°38'0 0.0
2017-Jun-19 12:30N 39°34' E 002°38'0 0.0
2017-Jun-19 12:00N 39°34' E 002°38'0 0.0
2017-Jun-19 11:30N 39°34' E 002°38'0 0.0
2017-Jun-19 11:00N 39°34' E 002°38'0 0.0
2017-Jun-19 10:30N 39°34' E 002°38'0 0.0
2017-Jun-19 10:00N 39°34' E 002°38'0 0.0
2017-Jun-19 09:30N 39°34' E 002°38'0 0.0
2017-Jun-19 09:00N 39°34' E 002°38'0 0.0
2017-Jun-19 08:30N 39°34' E 002°38'0 0.0
2017-Jun-19 08:00N 39°34' E 002°38'0 0.0
2017-Jun-19 07:30N 39°34' E 002°38'0 0.0
2017-Jun-19 07:00N 39°34' E 002°38'0 0.0
2017-Jun-19 06:30N 39°34' E 002°38'0 0.0
2017-Jun-19 06:00N 39°34' E 002°38'0 0.0
2017-Jun-19 05:30N 39°34' E 002°38'0 0.0
2017-Jun-19 05:00N 39°34' E 002°38'0 0.0
2017-Jun-19 04:30N 39°34' E 002°38'0 0.0
2017-Jun-19 04:00N 39°34' E 002°38'0 0.0
2017-Jun-19 03:30N 39°34' E 002°38'0 0.0
2017-Jun-19 03:00N 39°34' E 002°38'0 0.0
2017-Jun-19 02:30N 39°34' E 002°38'0 0.0
2017-Jun-19 02:00N 39°34' E 002°38'0 0.0
2017-Jun-19 01:30N 39°34' E 002°38'0 0.0
2017-Jun-19 01:00N 39°34' E 002°38'0 0.0
2017-Jun-19 00:30N 39°34' E 002°38'0 0.0
2017-Jun-18 23:57N 39°34' E 002°38'0 0.0
2017-Jun-18 23:27N 39°34' E 002°38'0 0.0
2017-Jun-18 23:00N 39°34' E 002°38'0 0.0
2017-Jun-18 22:30N 39°34' E 002°38'0 0.0
2017-Jun-18 22:00N 39°34' E 002°38'0 0.0
2017-Jun-18 21:30N 39°34' E 002°38'0 0.0
2017-Jun-18 21:00N 39°34' E 002°38'0 0.0
2017-Jun-18 20:30N 39°34' E 002°38'0 0.0
2017-Jun-18 20:00N 39°34' E 002°38'0 0.0
2017-Jun-18 19:30N 39°34' E 002°38'0 0.0
2017-Jun-18 19:00N 39°34' E 002°38'0 0.0
2017-Jun-18 18:30N 39°34' E 002°38'0 0.0
2017-Jun-18 18:00N 39°34' E 002°38'0 0.0
2017-Jun-18 17:30N 39°34' E 002°38'0 0.0
2017-Jun-18 17:00N 39°34' E 002°38'0 0.0
2017-Jun-18 16:30N 39°34' E 002°38'0 0.0
2017-Jun-18 16:00N 39°34' E 002°38'0 0.0
2017-Jun-18 15:30N 39°34' E 002°38'0 0.0
2017-Jun-18 15:00N 39°34' E 002°38'0 0.0
2017-Jun-18 14:00N 39°34' E 002°38'0 0.0
2017-Jun-18 13:30N 39°34' E 002°38'0 0.0
2017-Jun-18 13:00N 39°34' E 002°38'1 1.9
2017-Jun-18 12:31N 39°33' E 002°39'4 7.7
2017-Jun-18 12:01N 39°31' E 002°43'2 3.2
2017-Jun-18 11:28N 39°30' E 002°45'0 0.0
2017-Jun-18 11:00N 39°30' E 002°45'0 0.0
2017-Jun-18 10:27N 39°30' E 002°45'0 0.0
2017-Jun-18 10:00N 39°30' E 002°45'0 0.0
2017-Jun-18 09:30N 39°30' E 002°45'0 0.0
2017-Jun-18 09:00N 39°30' E 002°45'0 0.4
2017-Jun-18 08:30N 39°30' E 002°44'1 1.7
2017-Jun-18 07:52N 39°29' E 002°44'0 0.1
2017-Jun-18 07:22N 39°29' E 002°44'0 0.0
2017-Jun-18 06:58N 39°29' E 002°44'0 0.0
2017-Jun-18 06:28N 39°29' E 002°44'0 0.0
2017-Jun-18 05:58N 39°29' E 002°44'0 0.0
2017-Jun-18 05:28N 39°29' E 002°44'0 0.0
2017-Jun-18 04:58N 39°29' E 002°44'0 0.0
2017-Jun-18 04:28N 39°29' E 002°44'0 0.0
2017-Jun-18 03:58N 39°29' E 002°44'0 0.0
2017-Jun-18 03:28N 39°29' E 002°44'0 0.0
2017-Jun-18 02:58N 39°29' E 002°44'0 0.0
2017-Jun-18 02:28N 39°29' E 002°44'0 0.0
2017-Jun-18 01:58N 39°29' E 002°44'0 0.0
2017-Jun-18 01:28N 39°29' E 002°44'0 0.0
2017-Jun-18 00:58N 39°29' E 002°44'0 0.0
2017-Jun-18 00:28N 39°29' E 002°44'0 0.0
2017-Jun-17 23:58N 39°29' E 002°44'0 0.0
2017-Jun-17 23:28N 39°29' E 002°44'0 0.0
2017-Jun-17 22:58N 39°29' E 002°44'0 0.0
2017-Jun-17 22:28N 39°29' E 002°44'0 0.0
2017-Jun-17 21:58N 39°29' E 002°44'0 0.0
2017-Jun-17 21:28N 39°29' E 002°44'0 0.0
2017-Jun-17 20:58N 39°29' E 002°44'0 0.0
2017-Jun-17 20:28N 39°29' E 002°44'0 0.0
2017-Jun-17 19:58N 39°29' E 002°44'0 0.0
2017-Jun-17 19:28N 39°29' E 002°44'0 0.0
2017-Jun-17 18:58N 39°29' E 002°44'0 0.0
2017-Jun-17 18:28N 39°29' E 002°44'0 0.0
2017-Jun-17 17:58N 39°29' E 002°44'0 0.0
2017-Jun-17 17:28N 39°29' E 002°44'0 0.0
2017-Jun-17 16:58N 39°29' E 002°44'0 0.0
2017-Jun-17 16:28N 39°29' E 002°44'0 0.0
2017-Jun-17 15:58N 39°29' E 002°44'0 0.0
2017-Jun-17 15:28N 39°29' E 002°44'0 0.0
2017-Jun-17 14:58N 39°29' E 002°44'0 0.0
2017-Jun-17 14:28N 39°29' E 002°44'0 0.0
2017-Jun-17 13:28N 39°29' E 002°44'0 0.0
2017-Jun-17 12:58N 39°29' E 002°44'0 0.0
2017-Jun-17 12:28N 39°29' E 002°44'0 0.0
2017-Jun-17 11:58N 39°29' E 002°44'0 0.0
2017-Jun-17 11:28N 39°29' E 002°44'0 0.0
2017-Jun-17 10:58N 39°29' E 002°44'0 0.0
2017-Jun-17 10:25N 39°29' E 002°44'0 0.0
2017-Jun-17 09:58N 39°29' E 002°44'0 0.0
2017-Jun-17 09:28N 39°29' E 002°44'0 0.0
2017-Jun-17 08:58N 39°29' E 002°44'0 0.0
2017-Jun-17 08:28N 39°29' E 002°44'0 0.0
2017-Jun-17 07:58N 39°29' E 002°44'0 0.0
2017-Jun-17 07:28N 39°29' E 002°44'0 0.0
2017-Jun-17 06:58N 39°29' E 002°44'0 0.0
2017-Jun-17 06:28N 39°29' E 002°44'0 0.0
2017-Jun-17 05:58N 39°29' E 002°44'0 0.0
2017-Jun-17 05:28N 39°29' E 002°44'0 0.0
2017-Jun-17 04:58N 39°29' E 002°44'0 0.0
2017-Jun-17 04:28N 39°29' E 002°44'0 0.0
2017-Jun-17 03:58N 39°29' E 002°44'0 0.0
2017-Jun-17 03:28N 39°29' E 002°44'0 0.0
2017-Jun-17 02:58N 39°29' E 002°44'0 0.0
2017-Jun-17 02:28N 39°29' E 002°44'0 0.0
2017-Jun-17 01:58N 39°29' E 002°44'0 0.0
2017-Jun-17 01:28N 39°29' E 002°44'0 0.0
2017-Jun-17 00:58N 39°29' E 002°44'0 0.0
2017-Jun-17 00:28N 39°29' E 002°44'0 0.0
2017-Jun-16 23:58N 39°29' E 002°44'0 0.0
2017-Jun-16 23:28N 39°29' E 002°44'0 0.0
2017-Jun-16 22:58N 39°29' E 002°44'0 0.0
2017-Jun-16 22:28N 39°29' E 002°44'0 0.0
2017-Jun-16 21:55N 39°29' E 002°44'0 0.0
2017-Jun-16 21:28N 39°29' E 002°44'0 0.0
2017-Jun-16 20:55N 39°29' E 002°44'0 0.0
2017-Jun-16 20:28N 39°29' E 002°44'0 0.0
2017-Jun-16 19:58N 39°29' E 002°44'0 0.0
2017-Jun-16 19:28N 39°29' E 002°44'0 0.0
2017-Jun-16 18:58N 39°29' E 002°44'0 0.0
2017-Jun-16 18:28N 39°29' E 002°44'0 0.0
2017-Jun-16 17:58N 39°29' E 002°44'0 0.0
2017-Jun-16 17:28N 39°29' E 002°44'0 0.0
2017-Jun-16 16:58N 39°29' E 002°44'0 0.0
2017-Jun-16 16:28N 39°29' E 002°44'0 0.0
2017-Jun-16 15:58N 39°29' E 002°44'0 0.0
2017-Jun-16 15:28N 39°29' E 002°44'0 0.0
2017-Jun-16 14:58N 39°29' E 002°44'0 0.0
2017-Jun-16 14:28N 39°29' E 002°44'0 0.0
2017-Jun-16 13:28N 39°29' E 002°44'0 0.7
2017-Jun-16 13:00N 39°29' E 002°43'2 3.1
2017-Jun-16 12:30N 39°28' E 002°42'1 1.3
2017-Jun-16 12:00N 39°29' E 002°42'2 3.5
2017-Jun-16 11:30N 39°30' E 002°41'3 5.6
2017-Jun-16 11:00N 39°33' E 002°39'2 3.3
2017-Jun-16 10:30N 39°34' E 002°38'  
Track history (hours):
 
Tides and Currents Weather Stations Pressure Air Temp Water Temp Dewpoint Dewpoint Depression Visibility Wind Speed Wind Dir Waves Ship Positions

La Luna Sb

Last reported at 2017-Jun-26 10:09 UTC. Time now 2017-Aug-20 13:22 UTC.
Position N 37°55' E 015°42'.
Warning: this ship's position is 55 days out of date.

Type: Pleasure craft. MMSI: 235066733.

Date/timePositionNaut miles runAvg speedWind from/ knotsBaromVisibWave heightAir tempDewpointWater temp
2017-Jun-26 10:09N 37°55' E 015°42'2 5.5
2017-Jun-26 09:47N 37°57' E 015°40'311 6.8
2017-Jun-24 11:44N 39°09' E 009°13'2 9.0
2017-Jun-24 11:29N 39°09' E 009°10'3 5.5
2017-Jun-24 11:00N 39°11' E 009°07'2 3.7
2017-Jun-24 10:30N 39°12' E 009°07'0 0.0
2017-Jun-24 09:57N 39°12' E 009°07'0 0.0
2017-Jun-24 09:30N 39°12' E 009°07'0 0.0
2017-Jun-24 09:00N 39°12' E 009°07'0 0.0
2017-Jun-24 08:24N 39°12' E 009°07'0 0.0
2017-Jun-24 08:00N 39°12' E 009°07'0 0.0
2017-Jun-24 07:30N 39°12' E 009°07'0 0.0
2017-Jun-24 07:00N 39°12' E 009°07'0 0.0
2017-Jun-24 06:30N 39°12' E 009°07'0 0.0
2017-Jun-24 06:00N 39°12' E 009°07'0 0.0
2017-Jun-24 05:30N 39°12' E 009°07'0 0.0
2017-Jun-24 05:00N 39°12' E 009°07'0 0.0
2017-Jun-24 04:30N 39°12' E 009°07'0 0.0
2017-Jun-24 04:00N 39°12' E 009°07'0 0.0
2017-Jun-24 03:30N 39°12' E 009°07'0 0.0
2017-Jun-24 03:00N 39°12' E 009°07'0 0.0
2017-Jun-24 02:30N 39°12' E 009°07'0 0.0
2017-Jun-24 02:00N 39°12' E 009°07'0 0.0
2017-Jun-24 01:30N 39°12' E 009°07'0 0.0
2017-Jun-24 01:00N 39°12' E 009°07'0 0.0
2017-Jun-24 00:30N 39°12' E 009°07'0 0.0
2017-Jun-24 00:00N 39°12' E 009°07'0 0.0
2017-Jun-23 23:30N 39°12' E 009°07'0 0.0
2017-Jun-23 23:00N 39°12' E 009°07'0 0.0
2017-Jun-23 22:28N 39°12' E 009°07'0 0.0
2017-Jun-23 21:58N 39°12' E 009°07'0 0.0
2017-Jun-23 21:28N 39°12' E 009°07'0 0.0
2017-Jun-23 20:58N 39°12' E 009°07'0 0.0
2017-Jun-23 20:28N 39°12' E 009°07'0 0.0
2017-Jun-23 19:58N 39°12' E 009°07'0 0.0
2017-Jun-23 19:28N 39°12' E 009°07'0 0.0
2017-Jun-23 18:58N 39°12' E 009°07'0 0.0
2017-Jun-23 18:28N 39°12' E 009°07'0 0.0
2017-Jun-23 17:58N 39°12' E 009°07'0 0.0
2017-Jun-23 17:28N 39°12' E 009°07'0 0.0
2017-Jun-23 16:58N 39°12' E 009°07'0 0.0
2017-Jun-23 16:28N 39°12' E 009°07'0 0.0
2017-Jun-23 15:58N 39°12' E 009°07'0 0.0
2017-Jun-23 15:25N 39°12' E 009°07'0 0.0
2017-Jun-23 14:58N 39°12' E 009°07'0 0.0
2017-Jun-23 14:28N 39°12' E 009°07'0 0.0
2017-Jun-23 13:58N 39°12' E 009°07'0 0.0
2017-Jun-23 13:28N 39°12' E 009°07'0 0.0
2017-Jun-23 12:58N 39°12' E 009°07'0 0.0
2017-Jun-23 12:28N 39°12' E 009°07'0 0.0
2017-Jun-23 11:58N 39°12' E 009°07'0 0.0
2017-Jun-23 11:28N 39°12' E 009°07'0 0.0
2017-Jun-23 10:58N 39°12' E 009°07'0 0.1
2017-Jun-23 10:29N 39°12' E 009°07'3 5.7
2017-Jun-23 09:59N 39°10' E 009°06'4 7.6
2017-Jun-23 09:29N 39°06' E 009°05'4 7.7
2017-Jun-23 08:55N 39°02' E 009°03'262 5.6
2017-Jun-21 10:09N 39°11' E 003°25'10 7.5
2017-Jun-21 08:53N 39°13' E 003°13'3 7.6
2017-Jun-21 08:29N 39°13' E 003°09'5 7.7
2017-Jun-21 07:50N 39°14' E 003°03'3 7.6
2017-Jun-21 07:30N 39°15' E 002°60'4 7.5
2017-Jun-21 06:59N 39°17' E 002°55'5 7.7
2017-Jun-21 06:18N 39°20' E 002°50'3 7.5
2017-Jun-21 05:57N 39°21' E 002°47'3 7.3
2017-Jun-21 05:30N 39°24' E 002°44'4 7.8
2017-Jun-21 05:00N 39°27' E 002°43'2 4.1
2017-Jun-21 04:30N 39°29' E 002°41'4 7.3
2017-Jun-21 04:00N 39°32' E 002°39'2 3.8
2017-Jun-21 03:28N 39°34' E 002°38'0 0.0
2017-Jun-21 02:58N 39°34' E 002°38'0 0.0
2017-Jun-21 02:30N 39°34' E 002°38'0 0.0
2017-Jun-21 01:57N 39°34' E 002°38'0 0.0
2017-Jun-21 01:30N 39°34' E 002°38'0 0.0
2017-Jun-21 01:00N 39°34' E 002°38'0 0.0
2017-Jun-21 00:30N 39°34' E 002°38'0 0.0
2017-Jun-20 23:57N 39°34' E 002°38'0 0.0
2017-Jun-20 23:30N 39°34' E 002°38'0 0.0
2017-Jun-20 23:00N 39°34' E 002°38'0 0.0
2017-Jun-20 22:30N 39°34' E 002°38'0 0.0
2017-Jun-20 22:00N 39°34' E 002°38'0 0.0
2017-Jun-20 21:30N 39°34' E 002°38'0 0.0
2017-Jun-20 20:57N 39°34' E 002°38'0 0.0
2017-Jun-20 20:30N 39°34' E 002°38'0 0.0
2017-Jun-20 19:57N 39°34' E 002°38'0 0.0
2017-Jun-20 19:30N 39°34' E 002°38'0 0.0
2017-Jun-20 19:00N 39°34' E 002°38'0 0.0
2017-Jun-20 18:30N 39°34' E 002°38'0 0.0
2017-Jun-20 18:00N 39°34' E 002°38'0 0.0
2017-Jun-20 17:30N 39°34' E 002°38'0 0.0
2017-Jun-20 16:59N 39°34' E 002°38'0 0.0
2017-Jun-20 16:29N 39°34' E 002°38'0 0.0
2017-Jun-20 15:59N 39°34' E 002°38'0 0.0
2017-Jun-20 15:29N 39°34' E 002°38'0 0.0
2017-Jun-20 14:53N 39°34' E 002°38'0 0.0
2017-Jun-20 13:59N 39°34' E 002°38'0 0.0
2017-Jun-20 13:29N 39°34' E 002°38'0 0.0
2017-Jun-20 12:59N 39°34' E 002°38'0 0.0
2017-Jun-20 12:29N 39°34' E 002°38'0 0.0
2017-Jun-20 11:59N 39°34' E 002°38'0 0.0
2017-Jun-20 11:29N 39°34' E 002°38'0 0.0
2017-Jun-20 10:56N 39°34' E 002°38'0 0.0
2017-Jun-20 10:29N 39°34' E 002°38'0 0.0
2017-Jun-20 09:59N 39°34' E 002°38'0 0.0
2017-Jun-20 09:29N 39°34' E 002°38'0 0.0
2017-Jun-20 08:59N 39°34' E 002°38'0 0.0
2017-Jun-20 08:29N 39°34' E 002°38'0 0.0
2017-Jun-20 07:59N 39°34' E 002°38'0 0.0
2017-Jun-20 07:29N 39°34' E 002°38'0 0.0
2017-Jun-20 06:59N 39°34' E 002°38'0 0.0
2017-Jun-20 06:29N 39°34' E 002°38'0 0.0
2017-Jun-20 05:56N 39°34' E 002°38'0 0.0
2017-Jun-20 05:29N 39°34' E 002°38'0 0.0
2017-Jun-20 04:59N 39°34' E 002°38'0 0.0
2017-Jun-20 04:29N 39°34' E 002°38'0 0.0
2017-Jun-20 03:59N 39°34' E 002°38'0 0.0
2017-Jun-20 03:29N 39°34' E 002°38'0 0.0
2017-Jun-20 02:59N 39°34' E 002°38'0 0.0
2017-Jun-20 02:30N 39°34' E 002°38'0 0.0
2017-Jun-20 02:00N 39°34' E 002°38'0 0.0
2017-Jun-20 01:30N 39°34' E 002°38'0 0.0
2017-Jun-20 01:00N 39°34' E 002°38'0 0.0
2017-Jun-20 00:30N 39°34' E 002°38'0 0.0
2017-Jun-20 00:00N 39°34' E 002°38'0 0.0
2017-Jun-19 23:30N 39°34' E 002°38'0 0.0
2017-Jun-19 23:00N 39°34' E 002°38'0 0.0
2017-Jun-19 22:30N 39°34' E 002°38'0 0.0
2017-Jun-19 22:00N 39°34' E 002°38'0 0.0
2017-Jun-19 21:30N 39°34' E 002°38'0 0.0
2017-Jun-19 21:00N 39°34' E 002°38'0 0.0
2017-Jun-19 20:30N 39°34' E 002°38'0 0.0
2017-Jun-19 20:00N 39°34' E 002°38'0 0.0
2017-Jun-19 19:30N 39°34' E 002°38'0 0.0
2017-Jun-19 19:00N 39°34' E 002°38'0 0.0
2017-Jun-19 18:30N 39°34' E 002°38'0 0.0
2017-Jun-19 18:00N 39°34' E 002°38'0 0.0
2017-Jun-19 17:30N 39°34' E 002°38'0 0.0
2017-Jun-19 16:57N 39°34' E 002°38'0 0.0
2017-Jun-19 16:30N 39°34' E 002°38'0 0.0
2017-Jun-19 15:57N 39°34' E 002°38'0 0.0
2017-Jun-19 15:30N 39°34' E 002°38'0 0.0
2017-Jun-19 15:00N 39°34' E 002°38'0 0.0
2017-Jun-19 14:00N 39°34' E 002°38'0 0.0
2017-Jun-19 13:30N 39°34' E 002°38'0 0.0
2017-Jun-19 13:00N 39°34' E 002°38'0 0.0
2017-Jun-19 12:30N 39°34' E 002°38'0 0.0
2017-Jun-19 12:00N 39°34' E 002°38'0 0.0
2017-Jun-19 11:30N 39°34' E 002°38'0 0.0
2017-Jun-19 11:00N 39°34' E 002°38'0 0.0
2017-Jun-19 10:30N 39°34' E 002°38'0 0.0
2017-Jun-19 10:00N 39°34' E 002°38'0 0.0
2017-Jun-19 09:30N 39°34' E 002°38'0 0.0
2017-Jun-19 09:00N 39°34' E 002°38'0 0.0
2017-Jun-19 08:30N 39°34' E 002°38'0 0.0
2017-Jun-19 08:00N 39°34' E 002°38'0 0.0
2017-Jun-19 07:30N 39°34' E 002°38'0 0.0
2017-Jun-19 07:00N 39°34' E 002°38'0 0.0
2017-Jun-19 06:30N 39°34' E 002°38'0 0.0
2017-Jun-19 06:00N 39°34' E 002°38'0 0.0
2017-Jun-19 05:30N 39°34' E 002°38'0 0.0
2017-Jun-19 05:00N 39°34' E 002°38'0 0.0
2017-Jun-19 04:30N 39°34' E 002°38'0 0.0
2017-Jun-19 04:00N 39°34' E 002°38'0 0.0
2017-Jun-19 03:30N 39°34' E 002°38'0 0.0
2017-Jun-19 03:00N 39°34' E 002°38'0 0.0
2017-Jun-19 02:30N 39°34' E 002°38'0 0.0
2017-Jun-19 02:00N 39°34' E 002°38'0 0.0
2017-Jun-19 01:30N 39°34' E 002°38'0 0.0
2017-Jun-19 01:00N 39°34' E 002°38'0 0.0
2017-Jun-19 00:30N 39°34' E 002°38'0 0.0
2017-Jun-18 23:57N 39°34' E 002°38'0 0.0
2017-Jun-18 23:27N 39°34' E 002°38'0 0.0
2017-Jun-18 23:00N 39°34' E 002°38'0 0.0
2017-Jun-18 22:30N 39°34' E 002°38'0 0.0
2017-Jun-18 22:00N 39°34' E 002°38'0 0.0
2017-Jun-18 21:30N 39°34' E 002°38'0 0.0
2017-Jun-18 21:00N 39°34' E 002°38'0 0.0
2017-Jun-18 20:30N 39°34' E 002°38'0 0.0
2017-Jun-18 20:00N 39°34' E 002°38'0 0.0
2017-Jun-18 19:30N 39°34' E 002°38'0 0.0
2017-Jun-18 19:00N 39°34' E 002°38'0 0.0
2017-Jun-18 18:30N 39°34' E 002°38'0 0.0
2017-Jun-18 18:00N 39°34' E 002°38'0 0.0
2017-Jun-18 17:30N 39°34' E 002°38'0 0.0
2017-Jun-18 17:00N 39°34' E 002°38'0 0.0
2017-Jun-18 16:30N 39°34' E 002°38'0 0.0
2017-Jun-18 16:00N 39°34' E 002°38'0 0.0
2017-Jun-18 15:30N 39°34' E 002°38'0 0.0
2017-Jun-18 15:00N 39°34' E 002°38'0 0.0
2017-Jun-18 14:00N 39°34' E 002°38'0 0.0
2017-Jun-18 13:30N 39°34' E 002°38'0 0.0
2017-Jun-18 13:00N 39°34' E 002°38'1 1.9
2017-Jun-18 12:31N 39°33' E 002°39'4 7.7
2017-Jun-18 12:01N 39°31' E 002°43'2 3.2
2017-Jun-18 11:28N 39°30' E 002°45'0 0.0
2017-Jun-18 11:00N 39°30' E 002°45'0 0.0
2017-Jun-18 10:27N 39°30' E 002°45'0 0.0
2017-Jun-18 10:00N 39°30' E 002°45'0 0.0
2017-Jun-18 09:30N 39°30' E 002°45'0 0.0
2017-Jun-18 09:00N 39°30' E 002°45'0 0.4
2017-Jun-18 08:30N 39°30' E 002°44'1 1.7
2017-Jun-18 07:52N 39°29' E 002°44'0 0.1
2017-Jun-18 07:22N 39°29' E 002°44'0 0.0
2017-Jun-18 06:58N 39°29' E 002°44'0 0.0
2017-Jun-18 06:28N 39°29' E 002°44'0 0.0
2017-Jun-18 05:58N 39°29' E 002°44'0 0.0
2017-Jun-18 05:28N 39°29' E 002°44'0 0.0
2017-Jun-18 04:58N 39°29' E 002°44'0 0.0
2017-Jun-18 04:28N 39°29' E 002°44'0 0.0
2017-Jun-18 03:58N 39°29' E 002°44'0 0.0
2017-Jun-18 03:28N 39°29' E 002°44'0 0.0
2017-Jun-18 02:58N 39°29' E 002°44'0 0.0
2017-Jun-18 02:28N 39°29' E 002°44'0 0.0
2017-Jun-18 01:58N 39°29' E 002°44'0 0.0
2017-Jun-18 01:28N 39°29' E 002°44'0 0.0
2017-Jun-18 00:58N 39°29' E 002°44'0 0.0
2017-Jun-18 00:28N 39°29' E 002°44'0 0.0
2017-Jun-17 23:58N 39°29' E 002°44'0 0.0
2017-Jun-17 23:28N 39°29' E 002°44'0 0.0
2017-Jun-17 22:58N 39°29' E 002°44'0 0.0
2017-Jun-17 22:28N 39°29' E 002°44'0 0.0
2017-Jun-17 21:58N 39°29' E 002°44'0 0.0
2017-Jun-17 21:28N 39°29' E 002°44'0 0.0
2017-Jun-17 20:58N 39°29' E 002°44'0 0.0
2017-Jun-17 20:28N 39°29' E 002°44'0 0.0
2017-Jun-17 19:58N 39°29' E 002°44'0 0.0
2017-Jun-17 19:28N 39°29' E 002°44'0 0.0
2017-Jun-17 18:58N 39°29' E 002°44'0 0.0
2017-Jun-17 18:28N 39°29' E 002°44'0 0.0
2017-Jun-17 17:58N 39°29' E 002°44'0 0.0
2017-Jun-17 17:28N 39°29' E 002°44'0 0.0
2017-Jun-17 16:58N 39°29' E 002°44'0 0.0
2017-Jun-17 16:28N 39°29' E 002°44'0 0.0
2017-Jun-17 15:58N 39°29' E 002°44'0 0.0
2017-Jun-17 15:28N 39°29' E 002°44'0 0.0
2017-Jun-17 14:58N 39°29' E 002°44'0 0.0
2017-Jun-17 14:28N 39°29' E 002°44'0 0.0
2017-Jun-17 13:28N 39°29' E 002°44'0 0.0
2017-Jun-17 12:58N 39°29' E 002°44'0 0.0
2017-Jun-17 12:28N 39°29' E 002°44'0 0.0
2017-Jun-17 11:58N 39°29' E 002°44'0 0.0
2017-Jun-17 11:28N 39°29' E 002°44'0 0.0
2017-Jun-17 10:58N 39°29' E 002°44'0 0.0
2017-Jun-17 10:25N 39°29' E 002°44'0 0.0
2017-Jun-17 09:58N 39°29' E 002°44'0 0.0
2017-Jun-17 09:28N 39°29' E 002°44'0 0.0
2017-Jun-17 08:58N 39°29' E 002°44'0 0.0
2017-Jun-17 08:28N 39°29' E 002°44'0 0.0
2017-Jun-17 07:58N 39°29' E 002°44'0 0.0
2017-Jun-17 07:28N 39°29' E 002°44'0 0.0
2017-Jun-17 06:58N 39°29' E 002°44'0 0.0
2017-Jun-17 06:28N 39°29' E 002°44'0 0.0
2017-Jun-17 05:58N 39°29' E 002°44'0 0.0
2017-Jun-17 05:28N 39°29' E 002°44'0 0.0
2017-Jun-17 04:58N 39°29' E 002°44'0 0.0
2017-Jun-17 04:28N 39°29' E 002°44'0 0.0
2017-Jun-17 03:58N 39°29' E 002°44'0 0.0
2017-Jun-17 03:28N 39°29' E 002°44'0 0.0
2017-Jun-17 02:58N 39°29' E 002°44'0 0.0
2017-Jun-17 02:28N 39°29' E 002°44'0 0.0
2017-Jun-17 01:58N 39°29' E 002°44'0 0.0
2017-Jun-17 01:28N 39°29' E 002°44'0 0.0
2017-Jun-17 00:58N 39°29' E 002°44'0 0.0
2017-Jun-17 00:28N 39°29' E 002°44'0 0.0
2017-Jun-16 23:58N 39°29' E 002°44'0 0.0
2017-Jun-16 23:28N 39°29' E 002°44'0 0.0
2017-Jun-16 22:58N 39°29' E 002°44'0 0.0
2017-Jun-16 22:28N 39°29' E 002°44'0 0.0
2017-Jun-16 21:55N 39°29' E 002°44'0 0.0
2017-Jun-16 21:28N 39°29' E 002°44'0 0.0
2017-Jun-16 20:55N 39°29' E 002°44'0 0.0
2017-Jun-16 20:28N 39°29' E 002°44'0 0.0
2017-Jun-16 19:58N 39°29' E 002°44'0 0.0
2017-Jun-16 19:28N 39°29' E 002°44'0 0.0
2017-Jun-16 18:58N 39°29' E 002°44'0 0.0
2017-Jun-16 18:28N 39°29' E 002°44'0 0.0
2017-Jun-16 17:58N 39°29' E 002°44'0 0.0
2017-Jun-16 17:28N 39°29' E 002°44'0 0.0
2017-Jun-16 16:58N 39°29' E 002°44'0 0.0
2017-Jun-16 16:28N 39°29' E 002°44'0 0.0
2017-Jun-16 15:58N 39°29' E 002°44'0 0.0
2017-Jun-16 15:28N 39°29' E 002°44'0 0.0
2017-Jun-16 14:58N 39°29' E 002°44'0 0.0
2017-Jun-16 14:28N 39°29' E 002°44'0 0.0
2017-Jun-16 13:28N 39°29' E 002°44'0 0.7
2017-Jun-16 13:00N 39°29' E 002°43'2 3.1
2017-Jun-16 12:30N 39°28' E 002°42'1 1.3
2017-Jun-16 12:00N 39°29' E 002°42'2 3.5
2017-Jun-16 11:30N 39°30' E 002°41'3 5.6
2017-Jun-16 11:00N 39°33' E 002°39'2 3.3
2017-Jun-16 10:30N 39°34' E 002°38'  

Dump ship's entire track history